Time;durP1;ratioP1;P1;durP2;ratioP2;P2;SDS_P1;SDS_P2;PMS_P1;PMS_P2;Temp;Humidity;BMP_temperature;BMP_pressure;BME280_temperature;BME280_humidity;BME280_pressure;Samples;Min_cycle;Max_cycle;Signal;HPM_P1;HPM_P2
2022/03/03 00:01:16;;;;;;;21.42;11.40;;;;;;;;;;4946059;29;20044;-62
2022/03/03 00:03:42;;;;;;;24.73;10.63;;;;;;;;;;4936724;29;20475;-62
2022/03/03 00:06:07;;;;;;;21.90;11.77;;;;;;;;;;4952354;28;20027;-62
2022/03/03 00:08:33;;;;;;;21.67;11.95;;;;;;;;;;4948536;28;20477;-63
2022/03/03 00:10:58;;;;;;;21.63;11.25;;;;;;;;;;4951045;29;20031;-63
2022/03/03 00:13:23;;;;;;;21.23;11.23;;;;;;;;;;4945337;28;20034;-62
2022/03/03 00:15:49;;;;;;;20.98;11.32;;;;;;;;;;4946399;28;21935;-62
2022/03/03 00:18:14;;;;;;;22.00;11.70;;;;;;;;;;4940017;29;20039;-62
2022/03/03 00:20:39;;;;;;;20.23;11.32;;;;;;;;;;4952573;28;20539;-62
2022/03/03 00:23:05;;;;;;;21.40;11.13;;;;;;;;;;4953394;28;20027;-63
2022/03/03 00:25:30;;;;;;;22.42;11.65;;;;;;;;;;4954896;28;20121;-62
2022/03/03 00:27:55;;;;;;;21.83;11.65;;;;;;;;;;4952951;28;20058;-62
2022/03/03 00:30:21;;;;;;;26.48;11.88;;;;;;;;;;4955260;28;20042;-64
2022/03/03 00:32:46;;;;;;;22.38;11.90;;;;;;;;;;4952293;28;20035;-63
2022/03/03 00:35:13;;;;;;;25.65;12.00;;;;;;;;;;4953859;28;20035;-62
2022/03/03 00:37:38;;;;;;;24.95;11.93;;;;;;;;;;4953152;28;20497;-63
2022/03/03 00:40:05;;;;;;;23.95;12.20;;;;;;;;;;4953817;28;20046;-62
2022/03/03 00:42:33;;;;;;;23.17;11.85;;;;;;;;;;4953824;28;20046;-63
2022/03/03 00:44:58;;;;;;;21.98;11.43;;;;;;;;;;4951308;29;20042;-62
2022/03/03 00:47:24;;;;;;;22.17;11.98;;;;;;;;;;4956081;28;20043;-62
2022/03/03 00:49:50;;;;;;;25.08;11.93;;;;;;;;;;4954854;28;20118;-62
2022/03/03 00:52:15;;;;;;;23.25;12.02;;;;;;;;;;4955838;28;20541;-62
2022/03/03 00:54:41;;;;;;;26.50;12.23;;;;;;;;;;4954055;28;20038;-62
2022/03/03 00:57:06;;;;;;;22.42;11.60;;;;;;;;;;4954632;28;20043;-62
2022/03/03 00:59:31;;;;;;;23.08;11.75;;;;;;;;;;4954160;28;20042;-62
2022/03/03 01:01:57;;;;;;;22.08;11.45;;;;;;;;;;4946113;28;20027;-62
2022/03/03 01:04:22;;;;;;;21.35;11.10;;;;;;;;;;4955105;28;20106;-62
2022/03/03 01:06:48;;;;;;;23.85;11.98;;;;;;;;;;4952447;28;20461;-63
2022/03/03 01:09:14;;;;;;;24.73;12.50;;;;;;;;;;4953921;29;20046;-62
2022/03/03 01:11:39;;;;;;;24.02;12.07;;;;;;;;;;4954002;28;20098;-63
2022/03/03 01:14:05;;;;;;;26.13;11.65;;;;;;;;;;4953621;28;20381;-62
2022/03/03 01:16:30;;;;;;;22.05;11.63;;;;;;;;;;4954370;28;20451;-62
2022/03/03 01:18:55;;;;;;;27.23;11.88;;;;;;;;;;4953461;28;20046;-61
2022/03/03 01:21:21;;;;;;;22.45;11.45;;;;;;;;;;4953645;28;20385;-63
2022/03/03 01:23:46;;;;;;;22.45;11.25;;;;;;;;;;4951975;28;20059;-62
2022/03/03 01:26:12;;;;;;;23.25;11.60;;;;;;;;;;4953603;28;20027;-62
2022/03/03 01:28:37;;;;;;;24.08;12.30;;;;;;;;;;4954178;28;20392;-62
2022/03/03 01:31:03;;;;;;;20.15;11.07;;;;;;;;;;4968942;28;20019;-62
2022/03/03 01:33:28;;;;;;;23.08;11.75;;;;;;;;;;4949455;28;20035;-62
2022/03/03 01:35:53;;;;;;;26.27;12.38;;;;;;;;;;4951991;28;20035;-62
2022/03/03 01:38:19;;;;;;;25.33;11.48;;;;;;;;;;4954798;28;20054;-64
2022/03/03 01:40:44;;;;;;;25.00;11.73;;;;;;;;;;4953731;28;20093;-62
2022/03/03 01:43:09;;;;;;;21.98;11.80;;;;;;;;;;4953597;28;20161;-66
2022/03/03 01:45:35;;;;;;;23.38;12.27;;;;;;;;;;4950515;28;20358;-62
2022/03/03 01:48:00;;;;;;;31.70;12.30;;;;;;;;;;4952592;29;20117;-62
2022/03/03 01:50:26;;;;;;;23.38;11.52;;;;;;;;;;4952887;29;20544;-62
2022/03/03 01:52:51;;;;;;;26.67;12.32;;;;;;;;;;4951720;28;20098;-63
2022/03/03 01:55:17;;;;;;;28.25;12.52;;;;;;;;;;4954307;28;20058;-63
2022/03/03 01:57:43;;;;;;;25.17;12.63;;;;;;;;;;4952067;28;20050;-63
2022/03/03 02:00:09;;;;;;;24.88;12.70;;;;;;;;;;4953393;28;20122;-62
2022/03/03 02:02:35;;;;;;;23.73;11.57;;;;;;;;;;4950333;29;20129;-62
2022/03/03 02:05:00;;;;;;;25.35;12.07;;;;;;;;;;4954449;28;20110;-63
2022/03/03 02:07:26;;;;;;;29.67;13.35;;;;;;;;;;4952297;28;20456;-63
2022/03/03 02:09:51;;;;;;;27.00;12.73;;;;;;;;;;4954104;28;20031;-62
2022/03/03 02:12:16;;;;;;;25.75;12.15;;;;;;;;;;4960089;28;20449;-62
2022/03/03 02:14:44;;;;;;;21.52;11.73;;;;;;;;;;4951928;29;20159;-62
2022/03/03 02:17:09;;;;;;;27.73;12.85;;;;;;;;;;4951717;28;20050;-62
2022/03/03 02:19:35;;;;;;;29.23;12.57;;;;;;;;;;4952247;28;20089;-62
2022/03/03 02:22:01;;;;;;;28.08;12.40;;;;;;;;;;4952237;28;20035;-62
2022/03/03 02:24:26;;;;;;;25.80;12.65;;;;;;;;;;4953146;28;20039;-62
2022/03/03 02:26:53;;;;;;;24.33;12.02;;;;;;;;;;4952896;28;20043;-61
2022/03/03 02:29:18;;;;;;;23.17;11.80;;;;;;;;;;4952351;28;20397;-62
2022/03/03 02:31:44;;;;;;;25.50;13.15;;;;;;;;;;4952121;28;20039;-62
2022/03/03 02:34:11;;;;;;;23.35;12.40;;;;;;;;;;4952745;28;20042;-63
2022/03/03 02:36:36;;;;;;;24.30;12.73;;;;;;;;;;4950085;28;20098;-64
2022/03/03 02:39:05;;;;;;;23.65;12.40;;;;;;;;;;4952199;28;20074;-62
2022/03/03 02:41:31;;;;;;;24.85;12.30;;;;;;;;;;4952840;28;20031;-63
2022/03/03 02:43:58;;;;;;;23.02;11.80;;;;;;;;;;4949007;28;20066;-63
2022/03/03 02:46:23;;;;;;;25.38;13.13;;;;;;;;;;4951075;28;20039;-62
2022/03/03 02:48:49;;;;;;;24.40;12.20;;;;;;;;;;4950854;28;20408;-62
2022/03/03 02:51:14;;;;;;;23.05;12.38;;;;;;;;;;4951203;28;20030;-63
2022/03/03 02:53:40;;;;;;;26.23;12.68;;;;;;;;;;4952658;28;20039;-62
2022/03/03 02:56:06;;;;;;;27.95;12.98;;;;;;;;;;4951577;29;20292;-62
2022/03/03 02:58:32;;;;;;;26.05;12.73;;;;;;;;;;4940981;29;20043;-63
2022/03/03 03:00:59;;;;;;;23.55;12.18;;;;;;;;;;4951373;28;20035;-62
2022/03/03 03:03:25;;;;;;;27.85;13.20;;;;;;;;;;4941891;29;20070;-63
2022/03/03 03:05:50;;;;;;;24.58;12.20;;;;;;;;;;4949655;28;20058;-63
2022/03/03 03:08:16;;;;;;;30.15;13.38;;;;;;;;;;4951711;28;20129;-63
2022/03/03 03:10:42;;;;;;;25.60;12.27;;;;;;;;;;4953833;28;20524;-63
2022/03/03 03:13:08;;;;;;;23.60;12.15;;;;;;;;;;4948842;28;20097;-63
2022/03/03 03:15:34;;;;;;;24.63;11.88;;;;;;;;;;4952600;28;20456;-63
2022/03/03 03:18:17;;;;;;;26.42;13.20;;;;;;;;;;4951293;28;20046;-65
2022/03/03 03:20:44;;;;;;;24.60;11.95;;;;;;;;;;4952287;28;20037;-63
2022/03/03 03:23:11;;;;;;;23.10;12.63;;;;;;;;;;4950463;28;20563;-62
2022/03/03 03:25:37;;;;;;;24.58;12.55;;;;;;;;;;4952546;28;20114;-63
2022/03/03 03:28:05;;;;;;;25.30;12.82;;;;;;;;;;4950953;28;20031;-62
2022/03/03 03:30:30;;;;;;;27.02;12.93;;;;;;;;;;4952489;28;20039;-64
2022/03/03 03:32:56;;;;;;;26.48;12.68;;;;;;;;;;4950361;28;20386;-63
2022/03/03 03:35:21;;;;;;;27.15;12.95;;;;;;;;;;4949473;28;20457;-63
2022/03/03 03:37:47;;;;;;;23.10;12.02;;;;;;;;;;4941595;29;20046;-62
2022/03/03 03:40:13;;;;;;;26.35;12.73;;;;;;;;;;4950739;28;20047;-63
2022/03/03 03:42:38;;;;;;;26.27;13.65;;;;;;;;;;4951394;28;20058;-62
2022/03/03 03:45:04;;;;;;;24.75;12.18;;;;;;;;;;4951708;28;20027;-62
2022/03/03 03:47:30;;;;;;;25.83;12.63;;;;;;;;;;4951786;28;20070;-63
2022/03/03 03:49:55;;;;;;;27.75;12.85;;;;;;;;;;4950400;29;20035;-63
2022/03/03 03:52:21;;;;;;;24.90;13.13;;;;;;;;;;4950231;28;20579;-63
2022/03/03 03:54:46;;;;;;;21.95;11.90;;;;;;;;;;4945092;28;20094;-63
2022/03/03 03:57:11;;;;;;;24.83;12.85;;;;;;;;;;4955217;29;20469;-63
2022/03/03 03:59:37;;;;;;;24.45;12.73;;;;;;;;;;4952195;29;20035;-63
2022/03/03 04:02:03;;;;;;;27.48;12.70;;;;;;;;;;4955195;28;20082;-62
2022/03/03 04:04:28;;;;;;;25.08;13.63;;;;;;;;;;4955449;28;20469;-63
2022/03/03 04:06:53;;;;;;;23.52;12.85;;;;;;;;;;4954148;28;20039;-63
2022/03/03 04:09:19;;;;;;;24.95;12.65;;;;;;;;;;4955347;28;20436;-62
2022/03/03 04:11:44;;;;;;;29.58;13.05;;;;;;;;;;4954801;29;20035;-62
2022/03/03 04:14:10;;;;;;;27.15;13.25;;;;;;;;;;4947187;28;20539;-62
2022/03/03 04:16:36;;;;;;;24.10;12.50;;;;;;;;;;4953402;28;20036;-61
2022/03/03 04:19:01;;;;;;;27.58;13.15;;;;;;;;;;4948493;28;20045;-61
2022/03/03 04:21:27;;;;;;;26.58;12.88;;;;;;;;;;4954585;28;20473;-62
2022/03/03 04:23:53;;;;;;;26.17;12.93;;;;;;;;;;4951617;28;20043;-61
2022/03/03 04:26:18;;;;;;;25.13;13.05;;;;;;;;;;4956045;28;20039;-61
2022/03/03 04:28:44;;;;;;;24.85;12.77;;;;;;;;;;4954815;28;20082;-63
2022/03/03 04:31:10;;;;;;;26.60;12.75;;;;;;;;;;4954638;28;20045;-62
2022/03/03 04:33:36;;;;;;;25.13;13.23;;;;;;;;;;4953167;28;20037;-62
2022/03/03 04:36:01;;;;;;;24.65;13.57;;;;;;;;;;4952022;29;20035;-62
2022/03/03 04:38:26;;;;;;;24.65;12.57;;;;;;;;;;4954145;28;20055;-61
2022/03/03 04:40:52;;;;;;;28.92;13.02;;;;;;;;;;4955097;28;20134;-62
2022/03/03 04:43:17;;;;;;;22.70;12.07;;;;;;;;;;4966321;28;20511;-62
2022/03/03 04:45:44;;;;;;;25.02;12.65;;;;;;;;;;4970032;28;20082;-62
2022/03/03 04:48:09;;;;;;;27.50;13.18;;;;;;;;;;4966719;28;20393;-61
2022/03/03 04:50:35;;;;;;;26.77;13.13;;;;;;;;;;4952612;28;20031;-62
2022/03/03 04:53:00;;;;;;;25.92;12.75;;;;;;;;;;4954336;28;20039;-62
2022/03/03 04:55:26;;;;;;;24.55;12.80;;;;;;;;;;4953419;28;20043;-62
2022/03/03 04:57:51;;;;;;;25.88;12.63;;;;;;;;;;4955144;28;20461;-62
2022/03/03 05:00:17;;;;;;;25.90;13.00;;;;;;;;;;4955354;28;20600;-62
2022/03/03 05:02:43;;;;;;;26.48;12.95;;;;;;;;;;4954373;28;20035;-63
2022/03/03 05:05:08;;;;;;;25.50;13.18;;;;;;;;;;4952434;28;20066;-61
2022/03/03 05:07:34;;;;;;;25.17;12.95;;;;;;;;;;4952358;28;20372;-63
2022/03/03 05:10:00;;;;;;;25.48;12.80;;;;;;;;;;4954796;28;20034;-62
2022/03/03 05:12:26;;;;;;;24.10;11.70;;;;;;;;;;4953212;28;20047;-62
2022/03/03 05:14:52;;;;;;;25.98;12.48;;;;;;;;;;4954632;28;20035;-62
2022/03/03 05:17:17;;;;;;;24.95;12.40;;;;;;;;;;4954668;28;20138;-62
2022/03/03 05:19:42;;;;;;;27.25;12.35;;;;;;;;;;4952509;28;20035;-62
2022/03/03 05:22:08;;;;;;;25.73;12.52;;;;;;;;;;4954286;28;20031;-62
2022/03/03 05:24:33;;;;;;;26.58;13.57;;;;;;;;;;4951256;28;20362;-63
2022/03/03 05:26:59;;;;;;;25.42;13.02;;;;;;;;;;4952148;28;20031;-62
2022/03/03 05:29:25;;;;;;;25.67;12.73;;;;;;;;;;4953029;28;20384;-62
2022/03/03 05:31:50;;;;;;;25.92;12.88;;;;;;;;;;4956616;28;20484;-62
2022/03/03 05:34:16;;;;;;;26.42;13.25;;;;;;;;;;4966246;28;20035;-62
2022/03/03 05:36:42;;;;;;;25.55;12.43;;;;;;;;;;4960236;28;20485;-62
2022/03/03 05:39:08;;;;;;;25.30;12.45;;;;;;;;;;4952829;29;20054;-62
2022/03/03 05:41:34;;;;;;;29.23;12.93;;;;;;;;;;4955106;28;20049;-62
2022/03/03 05:44:00;;;;;;;24.35;13.05;;;;;;;;;;4954589;28;20028;-63
2022/03/03 05:46:25;;;;;;;25.98;12.73;;;;;;;;;;4954388;29;20090;-62
2022/03/03 05:48:51;;;;;;;25.63;12.38;;;;;;;;;;4958438;28;20073;-62
2022/03/03 05:51:19;;;;;;;24.88;11.85;;;;;;;;;;4953143;28;20078;-61
2022/03/03 05:53:45;;;;;;;22.85;12.55;;;;;;;;;;4954713;28;20465;-62
2022/03/03 05:56:14;;;;;;;27.88;12.63;;;;;;;;;;4953697;28;20050;-63
2022/03/03 05:58:48;;;;;;;23.85;11.93;;;;;;;;;;4952588;28;20481;-62
2022/03/03 06:01:15;;;;;;;29.00;12.65;;;;;;;;;;4950845;29;20122;-61
2022/03/03 06:03:41;;;;;;;29.60;12.38;;;;;;;;;;4953714;28;20039;-67
2022/03/03 06:06:12;;;;;;;27.40;12.90;;;;;;;;;;4954183;28;20042;-67
2022/03/03 06:08:51;;;;;;;28.60;13.80;;;;;;;;;;4948984;28;20032;-66
2022/03/03 06:11:20;;;;;;;26.63;13.10;;;;;;;;;;4954278;29;20070;-67
2022/03/03 06:13:47;;;;;;;27.20;13.52;;;;;;;;;;4970335;28;20043;-70
2022/03/03 06:16:20;;;;;;;29.85;14.25;;;;;;;;;;4953707;28;20467;-68
2022/03/03 06:18:47;;;;;;;28.75;13.85;;;;;;;;;;4952817;28;20062;-70
2022/03/03 06:21:14;;;;;;;27.50;13.43;;;;;;;;;;4953799;28;20106;-72
2022/03/03 06:23:39;;;;;;;27.60;13.25;;;;;;;;;;4954662;28;20454;-71
2022/03/03 06:26:11;;;;;;;31.73;13.23;;;;;;;;;;4953433;28;20034;-70
2022/03/03 06:28:37;;;;;;;27.00;12.95;;;;;;;;;;4954397;28;20043;-71
2022/03/03 06:31:05;;;;;;;32.95;13.82;;;;;;;;;;4953575;28;20088;-71
2022/03/03 06:33:31;;;;;;;23.02;12.10;;;;;;;;;;4953592;29;20114;-72
2022/03/03 06:35:56;;;;;;;26.70;13.43;;;;;;;;;;4949651;28;20124;-70
2022/03/03 06:38:22;;;;;;;28.65;13.68;;;;;;;;;;4933097;29;20142;-71
2022/03/03 06:40:48;;;;;;;25.15;12.60;;;;;;;;;;4949070;28;20043;-71
2022/03/03 06:43:13;;;;;;;27.30;12.98;;;;;;;;;;4952820;28;20031;-70
2022/03/03 06:45:39;;;;;;;26.10;13.73;;;;;;;;;;4953842;28;20031;-71
2022/03/03 06:48:04;;;;;;;27.75;13.93;;;;;;;;;;4953057;28;20062;-69
2022/03/03 06:50:34;;;;;;;28.55;14.02;;;;;;;;;;4953200;28;20081;-71
2022/03/03 06:53:01;;;;;;;26.90;12.77;;;;;;;;;;4953781;28;20543;-67
2022/03/03 06:55:27;;;;;;;28.13;13.93;;;;;;;;;;4953806;28;20046;-72
2022/03/03 06:57:55;;;;;;;30.02;13.43;;;;;;;;;;4968329;28;20038;-67
2022/03/03 07:00:23;;;;;;;26.20;13.02;;;;;;;;;;4972621;28;20026;-68
2022/03/03 07:02:49;;;;;;;28.13;14.13;;;;;;;;;;4974584;28;20473;-68
2022/03/03 07:05:15;;;;;;;25.67;13.13;;;;;;;;;;4952220;28;20095;-67
2022/03/03 07:07:43;;;;;;;25.42;13.43;;;;;;;;;;4954167;28;20031;-66
2022/03/03 07:10:10;;;;;;;30.95;14.05;;;;;;;;;;4952941;28;20421;-67
2022/03/03 07:12:36;;;;;;;31.33;14.07;;;;;;;;;;4954232;28;20042;-70
2022/03/03 07:15:01;;;;;;;30.98;13.73;;;;;;;;;;4952997;28;20384;-69
2022/03/03 07:18:00;;;;;;;25.50;12.88;;;;;;;;;;4953347;28;20039;-70
2022/03/03 07:20:34;;;;;;;31.60;14.45;;;;;;;;;;4930120;28;20051;-70
2022/03/03 07:23:03;;;;;;;27.05;13.55;;;;;;;;;;4953039;28;20110;-69
2022/03/03 07:25:41;;;;;;;26.52;13.00;;;;;;;;;;4951991;29;20027;-70
2022/03/03 07:28:09;;;;;;;24.88;12.82;;;;;;;;;;4952910;28;20046;-70
2022/03/03 07:30:43;;;;;;;24.67;12.57;;;;;;;;;;4953250;28;20472;-69
2022/03/03 07:33:49;;;;;;;26.13;12.82;;;;;;;;;;4952727;28;20039;-70
2022/03/03 07:36:23;;;;;;;27.27;12.40;;;;;;;;;;4941890;28;20039;-70
2022/03/03 07:39:01;;;;;;;24.92;12.27;;;;;;;;;;4953311;28;20079;-70
2022/03/03 07:41:28;;;;;;;27.15;12.77;;;;;;;;;;4953566;28;20469;-68
2022/03/03 07:43:54;;;;;;;24.40;12.45;;;;;;;;;;4953291;28;20459;-71
2022/03/03 07:46:21;;;;;;;27.23;12.50;;;;;;;;;;4952754;28;20176;-72
2022/03/03 07:48:47;;;;;;;23.98;12.95;;;;;;;;;;4953293;28;20392;-70
2022/03/03 07:51:13;;;;;;;25.02;12.13;;;;;;;;;;4951508;28;20027;-73
2022/03/03 07:53:38;;;;;;;23.52;12.68;;;;;;;;;;4952118;28;20035;-71
2022/03/03 07:56:05;;;;;;;23.23;12.05;;;;;;;;;;4952622;28;20036;-71
2022/03/03 07:58:38;;;;;;;23.98;12.05;;;;;;;;;;4952156;28;20123;-69
2022/03/03 08:01:05;;;;;;;24.35;11.93;;;;;;;;;;4950984;28;20039;-77
2022/03/03 08:03:32;;;;;;;26.65;11.98;;;;;;;;;;4967822;28;20135;-78
2022/03/03 08:05:58;;;;;;;24.20;12.80;;;;;;;;;;4959665;28;20107;-68
2022/03/03 08:08:28;;;;;;;22.90;11.77;;;;;;;;;;4953104;28;20461;-68
2022/03/03 08:11:04;;;;;;;23.27;11.45;;;;;;;;;;4953250;28;20031;-67
2022/03/03 08:13:31;;;;;;;21.70;11.70;;;;;;;;;;4953085;28;20031;-69
2022/03/03 08:15:58;;;;;;;23.90;11.70;;;;;;;;;;4951991;29;20521;-70
2022/03/03 08:18:29;;;;;;;26.63;11.93;;;;;;;;;;4952446;28;20027;-67
2022/03/03 08:20:55;;;;;;;23.65;12.55;;;;;;;;;;4953516;28;20114;-68
2022/03/03 08:23:25;;;;;;;25.88;12.80;;;;;;;;;;4952336;28;20118;-70
2022/03/03 08:25:52;;;;;;;28.05;12.98;;;;;;;;;;4952963;28;20037;-68
2022/03/03 08:28:20;;;;;;;24.98;12.77;;;;;;;;;;4952538;28;20408;-68
2022/03/03 08:30:48;;;;;;;26.10;12.88;;;;;;;;;;4953283;28;20031;-67
2022/03/03 08:33:19;;;;;;;26.52;13.57;;;;;;;;;;4949878;28;20035;-70
2022/03/03 08:35:52;;;;;;;30.48;13.63;;;;;;;;;;4959677;28;20031;-70
2022/03/03 08:38:31;;;;;;;25.88;13.00;;;;;;;;;;4963219;28;20055;-71
2022/03/03 08:40:59;;;;;;;26.00;13.07;;;;;;;;;;4952607;28;20036;-71
2022/03/03 08:43:27;;;;;;;28.45;13.70;;;;;;;;;;4954849;28;20118;-72
2022/03/03 08:46:03;;;;;;;27.35;13.00;;;;;;;;;;4955691;28;20031;-68
2022/03/03 08:48:31;;;;;;;26.73;13.25;;;;;;;;;;4956694;28;20031;-71
2022/03/03 08:50:58;;;;;;;25.33;13.30;;;;;;;;;;4955423;28;20039;-67
2022/03/03 08:53:24;;;;;;;26.85;13.63;;;;;;;;;;4954266;29;20516;-65
2022/03/03 08:55:50;;;;;;;25.92;13.32;;;;;;;;;;4956118;28;20114;-67
2022/03/03 08:58:15;;;;;;;26.27;14.00;;;;;;;;;;4948492;28;21641;-70
2022/03/03 09:00:41;;;;;;;26.10;13.35;;;;;;;;;;4954821;28;20070;-68
2022/03/03 09:03:07;;;;;;;23.63;12.75;;;;;;;;;;4954996;28;20028;-67
2022/03/03 09:05:32;;;;;;;26.33;13.82;;;;;;;;;;4961939;28;20039;-68
2022/03/03 09:07:58;;;;;;;31.17;14.30;;;;;;;;;;4958608;28;20042;-67
2022/03/03 09:10:24;;;;;;;32.08;13.43;;;;;;;;;;4956258;28;20372;-67
2022/03/03 09:12:50;;;;;;;27.38;13.23;;;;;;;;;;4956242;28;20051;-66
2022/03/03 09:15:15;;;;;;;27.85;13.68;;;;;;;;;;4954934;28;20381;-68
2022/03/03 09:17:41;;;;;;;28.55;13.60;;;;;;;;;;4948099;28;20040;-69
2022/03/03 09:20:11;;;;;;;25.90;12.68;;;;;;;;;;4954765;28;20046;-70
2022/03/03 09:22:37;;;;;;;24.70;13.13;;;;;;;;;;4955193;28;20031;-68
2022/03/03 09:25:03;;;;;;;20.42;11.45;;;;;;;;;;4953415;29;20130;-68
2022/03/03 09:27:29;;;;;;;20.50;11.25;;;;;;;;;;4955781;28;20062;-67
2022/03/03 09:29:54;;;;;;;25.25;12.00;;;;;;;;;;4955492;28;20058;-68
2022/03/03 09:32:19;;;;;;;23.05;11.07;;;;;;;;;;4954573;28;20039;-68
2022/03/03 09:34:45;;;;;;;22.50;11.90;;;;;;;;;;4955543;28;20109;-70
2022/03/03 09:37:15;;;;;;;21.15;12.00;;;;;;;;;;4956190;28;20046;-69
2022/03/03 09:39:40;;;;;;;23.00;11.93;;;;;;;;;;4975061;28;20066;-70
2022/03/03 09:42:08;;;;;;;22.13;11.43;;;;;;;;;;4961983;28;20042;-68
2022/03/03 09:44:33;;;;;;;22.10;11.02;;;;;;;;;;4955480;28;20046;-67
2022/03/03 09:46:59;;;;;;;19.10;10.75;;;;;;;;;;4953471;29;20035;-66
2022/03/03 09:49:24;;;;;;;20.38;11.05;;;;;;;;;;4953555;28;20031;-70
2022/03/03 09:51:50;;;;;;;20.67;12.20;;;;;;;;;;4955309;28;20098;-69
2022/03/03 09:54:16;;;;;;;22.67;12.57;;;;;;;;;;4953048;28;20181;-69
2022/03/03 09:56:42;;;;;;;22.83;12.20;;;;;;;;;;4955432;28;20039;-70
2022/03/03 09:59:07;;;;;;;22.45;12.57;;;;;;;;;;4953954;28;20031;-68
2022/03/03 10:01:33;;;;;;;22.15;12.55;;;;;;;;;;4954146;28;20473;-67
2022/03/03 10:04:20;;;;;;;23.63;12.65;;;;;;;;;;4953409;29;20031;-68
2022/03/03 10:06:46;;;;;;;24.73;12.57;;;;;;;;;;4954884;28;20058;-69
2022/03/03 10:09:13;;;;;;;24.50;12.88;;;;;;;;;;4953902;28;20075;-70
2022/03/03 10:11:48;;;;;;;20.05;11.68;;;;;;;;;;4955075;28;20034;-70
2022/03/03 10:14:27;;;;;;;22.50;12.57;;;;;;;;;;4952431;28;20110;-67
2022/03/03 10:16:52;;;;;;;26.00;12.18;;;;;;;;;;4953415;28;20123;-67
2022/03/03 10:19:17;;;;;;;20.75;11.05;;;;;;;;;;4945778;28;20138;-68
2022/03/03 10:21:44;;;;;;;22.52;11.55;;;;;;;;;;4947271;29;20042;-74
2022/03/03 10:24:21;;;;;;;20.88;11.05;;;;;;;;;;4953639;28;20114;-70
2022/03/03 10:26:56;;;;;;;19.67;11.07;;;;;;;;;;4953222;29;20027;-68
2022/03/03 10:29:22;;;;;;;21.33;10.63;;;;;;;;;;4953581;28;20051;-68
2022/03/03 10:31:52;;;;;;;16.73;10.40;;;;;;;;;;4953516;28;20039;-71
2022/03/03 10:34:20;;;;;;;19.63;11.03;;;;;;;;;;4953498;28;20038;-69
2022/03/03 10:37:07;;;;;;;18.98;11.07;;;;;;;;;;4952664;29;20031;-71
2022/03/03 10:39:42;;;;;;;20.13;10.88;;;;;;;;;;4954531;28;20110;-70
2022/03/03 10:42:21;;;;;;;21.50;11.20;;;;;;;;;;4953703;28;20063;-70
2022/03/03 10:44:49;;;;;;;21.15;11.40;;;;;;;;;;4954441;28;20031;-70
2022/03/03 10:47:21;;;;;;;19.65;11.40;;;;;;;;;;4952779;28;20050;-71
2022/03/03 10:49:49;;;;;;;17.92;11.48;;;;;;;;;;4952899;29;20062;-70
2022/03/03 10:52:16;;;;;;;20.30;10.85;;;;;;;;;;4952850;28;20389;-71
2022/03/03 10:54:48;;;;;;;21.02;11.32;;;;;;;;;;4953007;29;20062;-70
2022/03/03 10:57:40;;;;;;;21.15;12.00;;;;;;;;;;4953263;28;20031;-71
2022/03/03 11:00:14;;;;;;;17.42;10.15;;;;;;;;;;4953298;28;20027;-66
2022/03/03 11:02:45;;;;;;;18.90;10.10;;;;;;;;;;4953548;28;20027;-71
2022/03/03 11:05:12;;;;;;;18.27;11.23;;;;;;;;;;4951110;28;20034;-68
2022/03/03 11:07:43;;;;;;;18.42;10.38;;;;;;;;;;4953651;28;20070;-69
2022/03/03 11:10:12;;;;;;;19.50;10.77;;;;;;;;;;4967574;28;20488;-65
2022/03/03 11:12:39;;;;;;;20.25;10.90;;;;;;;;;;4953899;28;20142;-65
2022/03/03 11:15:05;;;;;;;18.13;10.52;;;;;;;;;;4952756;28;20039;-64
2022/03/03 11:17:31;;;;;;;17.23;9.75;;;;;;;;;;4953565;28;20469;-64
2022/03/03 11:19:59;;;;;;;16.88;10.32;;;;;;;;;;4953847;29;20042;-66
2022/03/03 11:22:26;;;;;;;18.35;9.95;;;;;;;;;;4952891;28;20071;-66
2022/03/03 11:24:55;;;;;;;17.38;9.63;;;;;;;;;;4953531;29;20504;-65
2022/03/03 11:27:30;;;;;;;15.68;9.82;;;;;;;;;;4967489;28;20039;-65
2022/03/03 11:30:19;;;;;;;18.40;9.90;;;;;;;;;;4952657;29;20050;-65
2022/03/03 11:32:56;;;;;;;18.00;9.38;;;;;;;;;;4953511;29;20383;-66
2022/03/03 11:35:26;;;;;;;16.08;9.80;;;;;;;;;;4952614;29;20191;-65
2022/03/03 11:37:52;;;;;;;16.50;9.70;;;;;;;;;;4967640;28;20462;-66
2022/03/03 11:40:18;;;;;;;17.17;10.02;;;;;;;;;;4952598;29;20042;-66
2022/03/03 11:42:52;;;;;;;14.57;10.15;;;;;;;;;;4952354;28;20035;-66
2022/03/03 11:45:20;;;;;;;15.57;10.15;;;;;;;;;;4952157;28;20556;-67
2022/03/03 11:47:48;;;;;;;13.70;9.57;;;;;;;;;;4953408;28;20164;-69
2022/03/03 11:50:17;;;;;;;13.80;9.95;;;;;;;;;;4952325;28;20028;-70
2022/03/03 11:52:45;;;;;;;16.58;9.98;;;;;;;;;;4953312;29;20031;-72
2022/03/03 11:55:28;;;;;;;15.40;10.18;;;;;;;;;;4951928;29;20093;-69
2022/03/03 11:58:03;;;;;;;14.07;9.05;;;;;;;;;;4953486;28;20028;-71
2022/03/03 12:00:30;;;;;;;14.30;9.77;;;;;;;;;;4952421;29;20500;-70
2022/03/03 12:03:07;;;;;;;17.77;9.88;;;;;;;;;;4953188;28;20050;-66
2022/03/03 12:05:35;;;;;;;14.48;9.60;;;;;;;;;;4953283;29;20118;-70
2022/03/03 12:08:11;;;;;;;14.55;9.95;;;;;;;;;;4953385;29;20031;-69
2022/03/03 12:10:55;;;;;;;16.10;9.73;;;;;;;;;;4952134;29;20030;-68
2022/03/03 12:13:29;;;;;;;15.82;9.73;;;;;;;;;;4951350;29;20078;-68
2022/03/03 12:16:13;;;;;;;12.93;9.45;;;;;;;;;;4952639;28;20370;-69
2022/03/03 12:18:40;;;;;;;14.52;9.82;;;;;;;;;;4955491;29;20031;-67
2022/03/03 12:21:30;;;;;;;15.30;10.25;;;;;;;;;;4956063;29;20038;-67
2022/03/03 12:24:28;;;;;;;13.77;10.10;;;;;;;;;;4956808;28;20130;-66
2022/03/03 12:26:56;;;;;;;15.10;10.50;;;;;;;;;;4956074;28;20039;-66
2022/03/03 12:29:50;;;;;;;14.07;9.55;;;;;;;;;;4955846;28;20027;-66
2022/03/03 12:32:28;;;;;;;13.30;9.70;;;;;;;;;;4953338;28;20390;-66
2022/03/03 12:34:55;;;;;;;13.23;10.35;;;;;;;;;;4950478;28;20032;-65
2022/03/03 12:37:21;;;;;;;16.08;10.15;;;;;;;;;;4955219;29;20023;-65
2022/03/03 12:40:00;;;;;;;15.38;9.95;;;;;;;;;;4954882;28;20062;-65
2022/03/03 12:42:29;;;;;;;14.85;9.52;;;;;;;;;;4963550;28;20035;-65
2022/03/03 12:44:57;;;;;;;13.25;9.30;;;;;;;;;;4975367;28;20484;-65
2022/03/03 12:47:39;;;;;;;13.35;9.60;;;;;;;;;;4974690;28;20845;-65
2022/03/03 12:50:11;;;;;;;13.25;9.40;;;;;;;;;;4936895;29;20040;-67
2022/03/03 12:52:38;;;;;;;13.85;10.10;;;;;;;;;;4945569;28;20110;-70
2022/03/03 12:55:05;;;;;;;15.00;10.30;;;;;;;;;;4956036;28;20038;-66
2022/03/03 12:57:33;;;;;;;15.27;9.80;;;;;;;;;;4955981;28;20027;-65
2022/03/03 13:00:00;;;;;;;14.73;10.27;;;;;;;;;;4955605;29;20038;-69
2022/03/03 13:02:27;;;;;;;13.63;10.18;;;;;;;;;;4955116;28;20672;-65
2022/03/03 13:04:53;;;;;;;13.52;9.50;;;;;;;;;;4953901;29;20039;-67
2022/03/03 13:07:21;;;;;;;12.35;9.48;;;;;;;;;;4955291;29;20050;-69
2022/03/03 13:09:56;;;;;;;13.20;9.38;;;;;;;;;;4955908;29;20086;-68
2022/03/03 13:12:22;;;;;;;13.35;9.32;;;;;;;;;;4955178;29;20035;-66
2022/03/03 13:15:00;;;;;;;13.75;9.35;;;;;;;;;;4955319;29;20039;-67
2022/03/03 13:17:26;;;;;;;14.18;8.82;;;;;;;;;;4955125;29;20604;-68
2022/03/03 13:19:52;;;;;;;13.38;8.85;;;;;;;;;;4955182;28;20028;-68
2022/03/03 13:22:18;;;;;;;13.20;8.18;;;;;;;;;;4954791;28;20038;-68
2022/03/03 13:24:44;;;;;;;11.48;8.38;;;;;;;;;;4955702;29;20376;-69
2022/03/03 13:27:09;;;;;;;12.85;8.00;;;;;;;;;;4954536;29;20039;-67
2022/03/03 13:29:37;;;;;;;11.00;7.60;;;;;;;;;;4954395;28;20035;-68
2022/03/03 13:32:14;;;;;;;10.23;7.40;;;;;;;;;;4954020;28;20042;-69
2022/03/03 13:34:45;;;;;;;10.88;8.00;;;;;;;;;;4955501;29;20039;-69
2022/03/03 13:37:18;;;;;;;11.90;8.20;;;;;;;;;;4953368;29;20090;-66
2022/03/03 13:39:45;;;;;;;11.38;8.15;;;;;;;;;;4968532;28;20405;-65
2022/03/03 13:42:15;;;;;;;11.05;8.05;;;;;;;;;;4952302;28;20046;-64
2022/03/03 13:44:55;;;;;;;12.18;8.60;;;;;;;;;;4958834;28;20038;-73
2022/03/03 13:47:29;;;;;;;11.70;8.23;;;;;;;;;;4953519;28;20039;-66
2022/03/03 13:49:56;;;;;;;12.43;7.55;;;;;;;;;;4956001;28;20082;-68
2022/03/03 13:52:30;;;;;;;10.90;7.63;;;;;;;;;;4953213;29;20039;-67
2022/03/03 13:54:58;;;;;;;11.52;7.85;;;;;;;;;;4934711;29;20027;-66
2022/03/03 13:57:46;;;;;;;10.38;7.13;;;;;;;;;;4935343;29;20094;-67
2022/03/03 14:00:34;;;;;;;9.30;6.32;;;;;;;;;;4954117;29;20031;-68
2022/03/03 14:03:02;;;;;;;9.70;6.40;;;;;;;;;;4954870;28;20063;-68
2022/03/03 14:05:47;;;;;;;9.68;6.63;;;;;;;;;;4954206;28;20116;-68
2022/03/03 14:08:25;;;;;;;11.77;7.00;;;;;;;;;;4953843;28;20400;-68
2022/03/03 14:11:04;;;;;;;10.40;7.53;;;;;;;;;;4954815;28;20033;-66
2022/03/03 14:13:57;;;;;;;11.55;8.05;;;;;;;;;;4953588;29;20047;-68
2022/03/03 14:16:39;;;;;;;10.77;7.57;;;;;;;;;;4953826;29;20035;-70
2022/03/03 14:19:05;;;;;;;12.00;7.43;;;;;;;;;;4954718;29;20039;-67
2022/03/03 14:21:30;;;;;;;12.57;7.72;;;;;;;;;;4954100;28;20847;-67
2022/03/03 14:23:56;;;;;;;13.55;8.10;;;;;;;;;;4953212;29;20055;-68
2022/03/03 14:26:22;;;;;;;13.10;8.27;;;;;;;;;;4952472;29;20114;-70